Chester, UT (84623)

3:31 PM MDT on September 01, 2015 (GMT -0600)
KUTSPRIN7 | | Change Station
CLOSE
Current Station
Personal Weather Station
Location: Spring City, UT
Elevation: 5843 ft
Nearby Weather Stations

Elev 5843 ft 39.48 °N, 111.49 °W | Updated 16 minutes ago

Partly Cloudy
Partly Cloudy
78.2 °F
Feels Like 78 °F
N
6.0
Wind Variable Wind from ESE
Gusts 12.0 mph

Today
High -- | Low -- °F
--% Chance of Precip.
Yesterday
High -- | Low -- °F
Precip. -- in
6:54 AM 7:57 PM
Waning Gibbous, 86% visible
Pressure 29.96 in
Visibility 10.0 miles
Clouds Few 11000 ft
Heat Index 78 °F
Dew Point 47 °F
Humidity 33%
Rainfall 0.00 in
Snow Depth Not available.
UV 3.2 out of 12
Pollen 9.00 out of 12
Air Quality Not available.
Flu Activity Not available.
METAR KPUC 012053Z AUTO 24007KT 10SM FEW110 23/09 A3015 RMK AO2 LTG DSNT W AND NW SLP144 T02330094 56016
Pressure 29.96 in
Visibility 10.0 miles
Clouds Few 11000 ft
Heat Index 78 °F
Dew Point 47 °F
Humidity 33%
Rainfall 0.00 in
Snow Depth Not available.
UV 3.2 out of 12
Pollen 9.00 out of 12
Air Quality Not available.
Flu Activity Not available.
METAR KPUC 012053Z AUTO 24007KT 10SM FEW110 23/09 A3015 RMK AO2 LTG DSNT W AND NW SLP144 T02330094 56016
Nowcast | as of 2:55 PM MDT on September 1, 2015

Scattered showers and thunderstorms will continue to develop this afternoon over portions of south central...east central and northern Utah...along with southwest Wyoming. The strongest storms at 250 PM were located just southwest of Eden...and across central Wayne County. Some of the stronger storms may produce locally heavy rain...small hail...gusty winds and dangerous lightning.

×

10-Day Weather Forecast

×

Almanac

Astronomy

Sep. 01, 2015 Rise Set
Actual Time
Civil Twilight
Nautical Twilight
Astronomical Twilight
Moon
Length of Visible Light
Length of Day
Tomorrow will be .
, % of the Moon is Illuminated

Today's Extremes

State Highs State Lows

Community

WunderPhotos

Upload Photos

1,851,628 photos uploaded!

WunderBlogs® & News

Nearby

Air Quality

  Air Quality AQ Index Pollutant
Not available.

Snow Depth

Station Depth Elevation

Earthquake Activity

City Distance Mag. Time & Date
Minimum magnitude displayed is 2.5.

Coastal Water Temperatures

Place Temperature

Stations

Nearby Weather Stations

Station Location Temp. Windchill Dew Point Humidity Wind Precip. Elev Updated Type